Time;durP1;ratioP1;P1;durP2;ratioP2;P2;SDS_P1;SDS_P2;PMS_P1;PMS_P2;Temp;Humidity;BMP_temperature;BMP_pressure;BME280_temperature;BME280_humidity;BME280_pressure;Samples;Min_cycle;Max_cycle;Signal;HPM_P1;HPM_P2
2021/05/06 00:01:36;;;;;;;8.83;2.60;;;;;;;13.24;48.32;99760.24;125635;1099;104290;-75
2021/05/06 00:04:34;;;;;;;6.90;2.67;;;;;;;13.21;48.65;99754.94;125669;1099;104354;-75
2021/05/06 00:31:43;;;;;;;8.13;2.50;;;;;;;13.00;49.25;99734.48;125634;1096;104169;-75
2021/05/06 00:34:11;;;;;;;8.27;2.80;;;;;;;12.97;49.53;99723.91;125639;1099;104235;-75
2021/05/06 00:36:39;;;;;;;8.23;2.80;;;;;;;12.93;49.63;99718.59;125641;1099;104367;-75
2021/05/06 00:39:11;;;;;;;13.10;2.80;;;;;;;12.92;49.59;99715.94;125709;1098;104174;-75
2021/05/06 00:41:47;;;;;;;5.07;2.40;;;;;;;12.90;49.78;99702.75;125639;1099;104229;-75
2021/05/06 00:44:55;;;;;;;6.80;2.73;;;;;;;12.85;49.96;99704.42;125701;1099;104169;-75
2021/05/06 00:55:31;;;;;;;8.33;2.70;;;;;;;12.83;50.15;99697.38;125678;1099;104165;-75
2021/05/06 00:58:15;;;;;;;7.07;2.80;;;;;;;12.83;50.14;99690.36;125638;1099;104187;-75
2021/05/06 01:01:02;;;;;;;8.07;2.73;;;;;;;12.82;50.37;99695.60;125660;1097;104286;-75
2021/05/06 01:03:40;;;;;;;9.67;2.67;;;;;;;12.80;50.51;99699.97;125611;1099;108651;-75
2021/05/06 01:06:12;;;;;;;6.83;2.50;;;;;;;12.80;50.46;99703.48;125691;1099;104181;-75
2021/05/06 01:08:43;;;;;;;6.43;2.63;;;;;;;12.80;50.81;99695.58;125696;1099;104597;-75
2021/05/06 01:11:20;;;;;;;10.77;3.30;;;;;;;12.77;50.76;99698.17;125719;1099;104192;-75
2021/05/06 01:13:49;;;;;;;7.87;3.20;;;;;;;12.74;51.09;99695.50;125654;1099;119319;-75
2021/05/06 01:16:32;;;;;;;5.95;2.70;;;;;;;12.71;50.91;99695.45;125256;1099;104198;-75
2021/05/06 01:19:00;;;;;;;5.90;2.80;;;;;;;12.65;50.69;99698.00;125677;1099;104366;-75
2021/05/06 01:21:28;;;;;;;8.30;2.93;;;;;;;12.62;51.19;99697.95;125690;1097;104197;-75
2021/05/06 01:23:58;;;;;;;7.57;2.73;;;;;;;12.57;51.02;99696.16;125685;1099;104217;-75
2021/05/06 01:26:31;;;;;;;5.80;2.83;;;;;;;12.56;51.26;99696.13;125684;1099;104169;-75
2021/05/06 01:29:03;;;;;;;12.00;2.92;;;;;;;12.53;51.54;99696.96;125617;1100;104174;-75
2021/05/06 01:31:33;;;;;;;10.80;3.00;;;;;;;12.52;51.54;99705.70;125687;1099;104178;-75
2021/05/06 01:34:10;;;;;;;8.77;3.20;;;;;;;12.51;51.67;99696.06;125660;1099;104178;-75
2021/05/06 01:36:41;;;;;;;9.30;2.80;;;;;;;12.50;51.72;99702.17;125677;1098;105647;-76
2021/05/06 01:39:35;;;;;;;9.97;3.27;;;;;;;12.50;51.83;99703.94;125716;1099;104171;-75
2021/05/06 01:42:08;;;;;;;7.37;2.67;;;;;;;12.53;51.80;99703.98;125595;1099;104158;-75
2021/05/06 01:45:03;;;;;;;6.63;2.53;;;;;;;12.55;51.70;99703.13;125670;1099;104236;-75
2021/05/06 01:47:34;;;;;;;8.13;2.60;;;;;;;12.62;51.75;99721.64;125698;1099;104171;-75
2021/05/06 01:50:18;;;;;;;9.23;3.10;;;;;;;12.63;52.12;99718.16;125647;1099;104160;-75
2021/05/06 01:58:27;;;;;;;9.40;3.00;;;;;;;12.61;52.49;99719.89;125621;1100;104204;-75
2021/05/06 02:00:59;;;;;;;8.30;2.97;;;;;;;12.54;52.49;99719.80;125687;1099;104169;-75
2021/05/06 02:03:28;;;;;;;9.63;3.00;;;;;;;12.52;52.53;99707.47;125688;1099;104268;-75
2021/05/06 02:05:57;;;;;;;7.93;2.90;;;;;;;12.49;52.65;99705.66;125621;1099;104251;-75
2021/05/06 02:08:26;;;;;;;8.07;3.10;;;;;;;12.49;52.60;99718.81;125648;1099;104354;-75
2021/05/06 02:11:01;;;;;;;8.27;2.90;;;;;;;12.50;52.83;99714.46;125669;1099;104342;-75
2021/05/06 02:13:47;;;;;;;11.33;3.07;;;;;;;12.48;52.77;99705.64;125627;1098;104169;-75
2021/05/06 02:16:19;;;;;;;7.63;3.10;;;;;;;12.47;52.87;99691.61;125684;1099;104253;-75
2021/05/06 02:18:47;;;;;;;11.47;3.57;;;;;;;12.48;53.03;99692.48;125628;1099;104274;-74
2021/05/06 02:21:17;;;;;;;9.90;2.70;;;;;;;12.44;53.17;99696.82;125633;1099;104307;-75
2021/05/06 02:23:54;;;;;;;8.40;2.70;;;;;;;12.46;53.07;99704.73;125659;1099;104245;-75
2021/05/06 02:26:22;;;;;;;8.10;2.87;;;;;;;12.47;53.11;99709.16;125640;1099;104169;-75
2021/05/06 02:28:50;;;;;;;13.13;3.13;;;;;;;12.45;53.20;99702.95;125641;1099;104165;-75
2021/05/06 02:31:19;;;;;;;10.20;3.10;;;;;;;12.46;53.93;99700.34;125658;1099;104198;-75
2021/05/06 02:33:47;;;;;;;14.77;3.50;;;;;;;12.46;53.53;99696.84;125594;1099;104171;-75
2021/05/06 02:36:15;;;;;;;9.87;3.27;;;;;;;12.45;53.53;99703.86;125678;1097;104185;-75
2021/05/06 02:38:43;;;;;;;8.67;3.00;;;;;;;12.47;53.88;99704.77;125608;1099;104300;-75
2021/05/06 02:41:10;;;;;;;10.23;3.07;;;;;;;12.45;53.48;99698.60;125687;1096;104204;-75
2021/05/06 02:43:38;;;;;;;8.67;3.10;;;;;;;12.45;53.84;99703.86;125635;1099;105590;-75
2021/05/06 02:46:06;;;;;;;10.17;3.37;;;;;;;12.44;53.91;99699.45;125610;1099;104187;-75
2021/05/06 02:48:34;;;;;;;9.40;3.43;;;;;;;12.43;53.83;99697.67;125657;1099;104171;-75
2021/05/06 02:51:04;;;;;;;9.05;3.50;;;;;;;12.43;54.04;99700.30;125583;1099;105215;-74
2021/05/06 02:53:35;;;;;;;10.17;3.20;;;;;;;12.40;54.15;99700.25;125676;1099;104214;-75
2021/05/06 02:56:09;;;;;;;9.30;3.20;;;;;;;12.37;54.24;99700.20;125657;1099;117791;-75
2021/05/06 02:58:51;;;;;;;9.77;2.83;;;;;;;12.38;54.31;99694.09;125638;1099;104217;-75
2021/05/06 03:04:03;;;;;;;6.73;2.73;;;;;;;12.42;54.35;99701.19;125645;1099;104169;-75
2021/05/06 03:06:34;;;;;;;9.67;3.07;;;;;;;12.45;54.67;99711.76;125691;1099;105348;-75
2021/05/06 03:09:10;;;;;;;9.47;3.47;;;;;;;12.47;54.48;99709.16;125674;1099;104248;-75
2021/05/06 03:11:42;;;;;;;7.77;3.00;;;;;;;12.48;54.63;99714.44;125654;1099;104290;-75
2021/05/06 03:14:28;;;;;;;9.53;3.10;;;;;;;12.51;54.92;99725.02;125681;1099;104175;-75
2021/05/06 03:24:59;;;;;;;13.43;3.77;;;;;;;12.64;54.97;99741.86;125598;1099;104166;-75
2021/05/06 03:27:30;;;;;;;15.40;3.17;;;;;;;12.64;55.15;99741.86;125662;1099;104166;-75
2021/05/06 03:30:08;;;;;;;14.30;3.47;;;;;;;12.70;55.00;99751.58;125632;1097;104303;-75
2021/05/06 03:32:46;;;;;;;10.67;3.17;;;;;;;12.72;55.04;99756.02;125612;1099;104230;-75
2021/05/06 03:35:27;;;;;;;6.23;2.77;;;;;;;12.79;55.13;99751.72;125651;1099;104297;-75
2021/05/06 03:43:28;;;;;;;9.40;3.15;;;;;;;12.88;55.23;99758.88;125646;1098;104169;-75
2021/05/06 04:18:11;;;;;;;14.50;3.70;;;;;;;13.19;56.09;99807.59;125082;1099;104348;-76
2021/05/06 04:26:11;;;;;;;11.85;3.30;;;;;;;13.25;56.17;99788.37;125502;1099;104242;-75
2021/05/06 04:36:53;;;;;;;17.37;3.67;;;;;;;13.27;56.23;99795.41;125485;1099;104249;-75
2021/05/06 04:39:30;;;;;;;7.83;3.47;;;;;;;13.31;56.90;99789.33;125602;1099;104332;-75
2021/05/06 04:42:15;;;;;;;10.50;3.47;;;;;;;13.33;56.58;99785.84;125549;1099;104182;-75
2021/05/06 04:55:38;;;;;;;14.57;3.47;;;;;;;13.77;56.83;99807.48;125621;1099;104262;-76
2021/05/06 04:58:41;;;;;;;15.83;4.30;;;;;;;13.92;56.82;99821.73;125572;1099;104168;-76
2021/05/06 05:03:52;;;;;;;10.70;3.63;;;;;;;14.18;56.55;99828.17;125646;1098;104210;-76
2021/05/06 05:06:23;;;;;;;15.20;3.40;;;;;;;14.29;56.53;99830.91;125619;1099;104190;-76
2021/05/06 05:08:56;;;;;;;12.60;3.40;;;;;;;14.42;56.52;99831.91;125607;1099;117812;-75
2021/05/06 05:11:35;;;;;;;10.13;3.40;;;;;;;14.52;56.42;99840.79;125613;1099;104294;-75
2021/05/06 05:25:01;;;;;;;9.43;3.37;;;;;;;14.95;56.12;99849.11;125542;1099;104239;-76
2021/05/06 05:27:29;;;;;;;13.87;4.00;;;;;;;15.09;56.43;99858.01;125642;1099;104245;-75
2021/05/06 05:29:58;;;;;;;10.23;3.60;;;;;;;15.22;55.95;99858.09;125611;1099;104191;-77
2021/05/06 05:32:26;;;;;;;8.77;3.50;;;;;;;15.34;56.39;99863.46;125614;1099;104322;-77
2021/05/06 05:34:59;;;;;;;11.77;3.67;;;;;;;15.43;56.72;99875.86;125649;1099;104278;-77
2021/05/06 05:37:33;;;;;;;12.90;3.57;;;;;;;15.43;56.85;99878.50;125581;1099;104328;-77
2021/05/06 05:40:15;;;;;;;15.87;4.13;;;;;;;15.44;56.29;99886.45;125682;1099;104195;-79
2021/05/06 05:42:56;;;;;;;13.57;4.30;;;;;;;15.45;56.71;99882.03;125678;1099;104155;-78
2021/05/06 05:56:07;;;;;;;13.30;4.20;;;;;;;15.55;55.99;99899.73;125507;1099;104576;-81
2021/05/06 05:58:36;;;;;;;11.17;3.60;;;;;;;15.60;56.02;99895.34;125518;1099;104160;-80
2021/05/06 06:01:04;;;;;;;13.00;4.20;;;;;;;15.67;56.66;99896.25;125501;1099;104192;-80
2021/05/06 06:03:51;;;;;;;14.07;4.13;;;;;;;15.73;56.13;99895.41;125493;1099;104251;-81
2021/05/06 06:06:24;;;;;;;9.00;3.77;;;;;;;15.85;55.90;99892.86;125594;1099;104238;-80
2021/05/06 06:08:53;;;;;;;12.53;3.97;;;;;;;15.90;56.44;99893.75;125567;1099;104271;-79
2021/05/06 06:11:22;;;;;;;12.27;3.67;;;;;;;15.97;56.23;99898.20;125614;1099;104238;-77
2021/05/06 06:13:53;;;;;;;18.97;4.53;;;;;;;16.07;55.70;99888.53;125602;1099;104178;-77
2021/05/06 06:16:23;;;;;;;9.67;3.70;;;;;;;16.21;55.91;99891.22;125523;1099;104198;-78
2021/05/06 06:18:53;;;;;;;8.93;3.60;;;;;;;16.32;55.55;99904.49;125435;1099;104211;-78
2021/05/06 06:21:25;;;;;;;10.93;3.90;;;;;;;16.38;55.94;99909.80;125534;1099;104306;-80
2021/05/06 06:23:55;;;;;;;13.77;4.10;;;;;;;16.41;55.67;99893.92;125497;1099;104195;-79
2021/05/06 06:26:24;;;;;;;8.70;3.70;;;;;;;16.45;55.92;99897.45;125454;1099;104421;-77
2021/05/06 06:28:56;;;;;;;9.87;3.43;;;;;;;16.50;56.00;99901.89;124922;1099;104457;-78
2021/05/06 06:31:27;;;;;;;11.57;3.87;;;;;;;16.54;56.07;99898.34;125523;1099;104341;-78
2021/05/06 06:33:57;;;;;;;18.33;3.80;;;;;;;16.61;56.02;99901.91;125525;1099;104377;-78
2021/05/06 06:36:27;;;;;;;9.53;3.70;;;;;;;16.65;55.79;99897.49;125479;1099;104220;-77
2021/05/06 06:38:56;;;;;;;9.30;4.20;;;;;;;16.69;55.68;99915.17;124975;1102;104272;-80
2021/05/06 06:41:25;;;;;;;12.33;4.43;;;;;;;16.73;55.97;99911.63;125407;1099;104264;-76
2021/05/06 06:43:58;;;;;;;9.57;3.73;;;;;;;16.79;55.65;99921.35;125509;1099;104345;-78
2021/05/06 06:46:27;;;;;;;12.10;3.90;;;;;;;16.77;55.90;99921.35;124979;1099;104457;-76
2021/05/06 06:48:57;;;;;;;11.20;3.97;;;;;;;16.77;55.31;99916.05;125377;1099;104178;-78
2021/05/06 06:51:26;;;;;;;14.35;3.90;;;;;;;16.83;55.78;99912.53;125549;1098;104249;-77
2021/05/06 06:53:58;;;;;;;10.13;4.23;;;;;;;16.84;55.75;99915.19;125572;1099;104175;-76
2021/05/06 06:56:26;;;;;;;10.33;4.33;;;;;;;16.82;55.28;99922.23;125583;1099;104189;-78
2021/05/06 06:58:55;;;;;;;16.37;4.10;;;;;;;16.76;55.50;99921.34;125538;1099;104169;-77
2021/05/06 07:01:32;;;;;;;16.10;4.27;;;;;;;16.77;55.46;99929.30;125590;1099;104203;-80
2021/05/06 07:04:00;;;;;;;16.57;4.43;;;;;;;16.70;54.66;99928.41;125506;1099;104178;-78
2021/05/06 07:06:38;;;;;;;13.53;4.10;;;;;;;16.61;55.20;99932.79;125563;1099;104412;-78
2021/05/06 07:09:15;;;;;;;8.33;3.90;;;;;;;16.54;54.92;99938.07;125561;1099;103566;-77
2021/05/06 07:11:43;;;;;;;13.40;4.20;;;;;;;16.49;55.43;99949.55;125527;1099;104167;-76
2021/05/06 07:14:12;;;;;;;14.57;5.03;;;;;;;16.47;55.29;99938.95;125577;1099;104216;-77
2021/05/06 07:16:40;;;;;;;14.00;4.50;;;;;;;16.48;54.72;99946.00;125605;1099;104162;-77
2021/05/06 07:19:13;;;;;;;15.50;4.93;;;;;;;16.49;55.51;99955.72;125554;1099;104290;-77
2021/05/06 07:21:42;;;;;;;12.33;4.67;;;;;;;16.52;55.56;99955.73;125551;1099;104149;-77
2021/05/06 07:24:13;;;;;;;14.67;4.80;;;;;;;16.56;55.08;99964.56;125543;1099;104226;-78
2021/05/06 07:26:42;;;;;;;18.97;4.97;;;;;;;16.60;55.16;99955.75;125598;1099;104294;-77
2021/05/06 07:29:16;;;;;;;14.03;4.53;;;;;;;16.72;55.69;99965.50;125537;1099;104255;-77
2021/05/06 07:31:47;;;;;;;18.03;4.80;;;;;;;16.73;55.38;99971.67;125530;1099;107084;-75
2021/05/06 07:34:15;;;;;;;13.47;5.27;;;;;;;16.73;55.47;99982.28;125579;1099;104326;-76
2021/05/06 07:36:44;;;;;;;13.00;4.90;;;;;;;16.67;54.73;99983.13;125600;1098;104175;-76
2021/05/06 07:39:13;;;;;;;18.00;5.90;;;;;;;16.65;54.92;99990.20;125553;1097;104338;-79
2021/05/06 07:41:43;;;;;;;14.05;4.70;;;;;;;16.76;55.57;99985.80;125766;1099;104768;-76
2021/05/06 07:44:11;;;;;;;15.17;4.63;;;;;;;16.94;54.69;99978.80;125516;1099;104226;-77
2021/05/06 07:46:42;;;;;;;14.30;4.33;;;;;;;17.07;54.69;99985.89;125625;1099;102759;-77
2021/05/06 07:49:10;;;;;;;11.10;4.07;;;;;;;17.10;54.41;99990.33;125556;1099;104175;-77
2021/05/06 07:51:39;;;;;;;8.37;4.30;;;;;;;17.13;54.74;99996.50;125544;1099;102775;-76
2021/05/06 07:54:10;;;;;;;13.37;4.50;;;;;;;17.11;54.45;99997.38;125654;1099;104153;-76
2021/05/06 07:56:42;;;;;;;11.80;4.57;;;;;;;17.10;54.14;100004.45;125513;1099;104240;-79
2021/05/06 07:59:11;;;;;;;10.53;4.27;;;;;;;17.02;54.59;99998.27;125565;1099;104153;-78
2021/05/06 08:01:41;;;;;;;14.63;4.70;;;;;;;17.05;54.00;100012.39;125521;1099;104744;-79
2021/05/06 08:04:11;;;;;;;14.03;4.13;;;;;;;17.04;54.19;100012.39;125488;1099;104289;-79
2021/05/06 08:06:47;;;;;;;9.03;3.50;;;;;;;16.94;54.31;100015.89;125571;1099;104239;-78
2021/05/06 08:09:18;;;;;;;9.75;3.60;;;;;;;16.84;54.27;100031.77;125465;1099;102617;-78
2021/05/06 08:11:48;;;;;;;11.60;3.73;;;;;;;16.75;53.62;100021.15;125521;1099;104264;-79
2021/05/06 08:14:17;;;;;;;6.73;3.40;;;;;;;16.73;54.19;100016.72;125562;1099;104268;-79
2021/05/06 08:16:52;;;;;;;11.80;3.30;;;;;;;16.65;54.05;100030.81;125582;1099;104178;-77
2021/05/06 08:19:23;;;;;;;9.43;3.30;;;;;;;16.62;53.82;100040.52;125614;1099;104272;-76
2021/05/06 08:21:53;;;;;;;7.30;3.50;;;;;;;16.68;53.37;100036.12;125512;1098;104156;-77
2021/05/06 08:24:23;;;;;;;10.47;3.60;;;;;;;16.77;53.31;100034.40;125628;1099;104194;-76
2021/05/06 08:26:58;;;;;;;9.25;3.62;;;;;;;16.91;53.77;100048.59;125546;1098;104291;-76
2021/05/06 08:29:29;;;;;;;7.53;3.30;;;;;;;17.01;53.32;100045.06;125667;1098;104197;-77
2021/05/06 08:31:57;;;;;;;6.87;3.30;;;;;;;17.08;53.40;100045.98;125580;1099;104175;-77
2021/05/06 08:34:32;;;;;;;6.80;3.53;;;;;;;17.08;53.20;100038.03;125585;1099;104287;-78
2021/05/06 08:37:03;;;;;;;8.73;3.70;;;;;;;17.03;52.63;100045.07;125485;1098;104165;-79
2021/05/06 08:39:33;;;;;;;7.93;3.57;;;;;;;16.92;53.36;100046.82;125521;1098;104288;-78
2021/05/06 08:42:03;;;;;;;9.10;3.47;;;;;;;16.91;52.95;100045.95;125573;1099;104168;-78
2021/05/06 08:44:43;;;;;;;6.37;3.13;;;;;;;16.98;52.63;100041.53;125559;1099;104788;-77
2021/05/06 08:47:17;;;;;;;8.33;3.97;;;;;;;17.05;53.13;100040.68;125481;1099;104329;-77
2021/05/06 08:49:51;;;;;;;6.57;3.50;;;;;;;17.16;53.16;100046.87;125493;1099;104278;-77
2021/05/06 08:52:21;;;;;;;6.07;3.30;;;;;;;17.32;52.61;100045.12;125601;1099;104264;-77
2021/05/06 08:54:53;;;;;;;8.10;3.93;;;;;;;17.29;52.02;100042.47;125639;1099;104207;-77
2021/05/06 08:57:24;;;;;;;5.23;3.10;;;;;;;17.24;51.75;100042.45;125556;1099;104197;-78
2021/05/06 08:59:53;;;;;;;3.67;2.93;;;;;;;17.21;51.69;100061.02;125580;1099;104159;-77
2021/05/06 09:02:23;;;;;;;10.70;3.30;;;;;;;17.23;52.18;100061.92;125553;1099;104348;-77
2021/05/06 09:04:57;;;;;;;5.90;3.37;;;;;;;17.33;52.13;100061.94;125501;1099;104160;-77
2021/05/06 09:07:31;;;;;;;7.77;3.43;;;;;;;17.51;51.98;100056.61;125512;1099;104297;-79
2021/05/06 09:10:00;;;;;;;5.78;3.72;;;;;;;17.76;52.29;100076.09;125659;1099;104197;-79
2021/05/06 09:12:46;;;;;;;6.17;2.90;;;;;;;17.96;51.95;100073.42;125489;1099;104079;-78
2021/05/06 09:15:23;;;;;;;5.47;3.00;;;;;;;18.25;51.50;100074.28;125494;1099;104211;-79
2021/05/06 09:17:55;;;;;;;5.13;2.90;;;;;;;18.36;51.61;100084.87;125611;1099;104207;-78
2021/05/06 09:20:28;;;;;;;4.87;2.80;;;;;;;18.35;51.37;100076.01;125564;1099;104204;-79
2021/05/06 09:23:02;;;;;;;3.93;2.90;;;;;;;18.55;51.64;100070.63;125647;1099;105219;-78
2021/05/06 09:25:35;;;;;;;3.83;2.57;;;;;;;18.80;51.15;100075.84;125512;1099;104166;-79
2021/05/06 09:28:10;;;;;;;4.30;2.77;;;;;;;18.99;51.07;100077.53;125823;1099;104175;-78
2021/05/06 09:30:50;;;;;;;7.73;2.80;;;;;;;19.20;51.58;100083.64;125888;1099;103584;-80
2021/05/06 09:33:27;;;;;;;6.07;2.73;;;;;;;19.36;50.39;100087.95;125724;1099;104143;-79
2021/05/06 09:36:10;;;;;;;4.80;2.40;;;;;;;19.48;50.88;100081.67;125662;1099;104607;-79
2021/05/06 09:38:42;;;;;;;3.63;2.53;;;;;;;19.62;50.43;100094.87;125500;1099;104220;-78
2021/05/06 09:41:13;;;;;;;6.73;2.77;;;;;;;19.61;50.83;100093.09;125706;1098;104169;-79
2021/05/06 09:43:45;;;;;;;5.20;2.55;;;;;;;19.59;50.70;100094.89;125631;1099;104246;-78
2021/05/06 09:46:32;;;;;;;4.97;2.30;;;;;;;19.61;49.40;100098.41;125578;1099;104277;-79
2021/05/06 09:49:04;;;;;;;3.62;1.87;;;;;;;19.52;49.48;100094.03;125555;1099;104166;-78
2021/05/06 09:51:39;;;;;;;6.07;2.60;;;;;;;19.43;49.85;100103.87;125494;1099;104395;-79
2021/05/06 09:54:10;;;;;;;3.40;2.33;;;;;;;19.38;49.43;100112.78;125564;1099;104169;-77
2021/05/06 09:56:39;;;;;;;6.50;2.47;;;;;;;19.25;49.23;100107.55;125702;1099;104239;-76
2021/05/06 09:59:20;;;;;;;4.60;2.63;;;;;;;19.28;49.34;100113.73;125688;1097;104272;-76
2021/05/06 10:01:52;;;;;;;6.23;2.60;;;;;;;19.38;48.97;100112.78;125595;1099;102406;-76
2021/05/06 10:04:22;;;;;;;4.30;2.57;;;;;;;19.54;48.58;100112.65;125488;1099;104204;-77
2021/05/06 10:07:08;;;;;;;4.23;2.10;;;;;;;19.70;48.53;100110.78;125570;1099;104153;-77
2021/05/06 10:09:54;;;;;;;5.03;2.60;;;;;;;19.97;48.74;100115.00;125508;1099;104280;-78
2021/05/06 10:12:24;;;;;;;4.17;2.60;;;;;;;20.26;48.78;100114.73;125674;1099;104204;-77
2021/05/06 10:15:03;;;;;;;3.10;2.60;;;;;;;20.40;48.00;100106.59;125477;1099;104242;-76
2021/05/06 10:17:39;;;;;;;6.30;2.37;;;;;;;20.40;47.33;100111.92;125486;1099;104277;-77
2021/05/06 10:20:09;;;;;;;5.40;2.10;;;;;;;20.45;47.64;100120.73;125827;1099;104072;-76
2021/05/06 10:22:42;;;;;;;5.10;2.40;;;;;;;20.44;48.00;100119.00;125700;1099;104204;-76
2021/05/06 10:25:12;;;;;;;8.27;2.50;;;;;;;20.53;47.17;100122.45;125883;1099;106106;-76
2021/05/06 10:27:42;;;;;;;4.87;2.37;;;;;;;20.39;46.89;100122.59;125796;1099;104293;-77
2021/05/06 10:30:14;;;;;;;6.73;2.80;;;;;;;20.27;47.28;100131.59;125534;1099;104172;-77
2021/05/06 10:32:44;;;;;;;4.27;2.30;;;;;;;20.17;46.48;100128.14;125547;1099;104157;-76
2021/05/06 10:35:18;;;;;;;5.87;2.37;;;;;;;20.03;46.46;100138.05;125609;1099;110877;-76
2021/05/06 10:37:54;;;;;;;7.47;2.07;;;;;;;19.93;46.87;100142.58;125568;1099;104165;-76
2021/05/06 10:40:34;;;;;;;3.97;2.10;;;;;;;19.86;46.02;100133.73;125603;1098;104171;-77
2021/05/06 10:43:23;;;;;;;4.00;2.10;;;;;;;19.91;46.02;100134.60;125608;1099;104163;-77
2021/05/06 10:46:00;;;;;;;6.23;2.10;;;;;;;19.95;46.17;100135.45;125668;1099;104168;-76
2021/05/06 10:48:54;;;;;;;6.23;2.17;;;;;;;20.03;45.51;100122.06;125690;1099;104293;-77
2021/05/06 10:51:41;;;;;;;1.77;1.67;;;;;;;20.00;44.87;100111.44;125713;1099;104166;-78
2021/05/06 10:54:28;;;;;;;2.30;1.90;;;;;;;20.05;45.75;100118.47;125595;1099;104169;-76
2021/05/06 10:56:58;;;;;;;8.07;2.53;;;;;;;20.20;45.11;100120.12;125549;1099;104166;-76
2021/05/06 10:59:30;;;;;;;3.60;1.97;;;;;;;20.22;45.48;100115.64;125578;1099;104165;-77
2021/05/06 11:02:05;;;;;;;5.55;2.10;;;;;;;20.21;45.10;100121.89;125608;1099;104198;-76
2021/05/06 11:04:36;;;;;;;3.97;2.00;;;;;;;20.40;45.13;100116.38;125581;1097;104175;-75
2021/05/06 11:07:18;;;;;;;3.37;1.70;;;;;;;20.49;44.83;100121.61;125597;1097;104236;-77
2021/05/06 11:10:03;;;;;;;5.37;1.90;;;;;;;20.53;45.14;100127.78;125592;1099;104160;-78
2021/05/06 11:12:39;;;;;;;5.33;1.90;;;;;;;20.56;45.11;100123.28;125582;1099;104325;-76
2021/05/06 11:15:24;;;;;;;4.60;2.37;;;;;;;20.56;44.77;100139.28;125604;1099;104179;-77
2021/05/06 11:17:55;;;;;;;2.60;1.77;;;;;;;20.53;44.09;100133.11;125611;1099;104133;-78
2021/05/06 11:20:44;;;;;;;3.47;1.67;;;;;;;20.52;44.25;100139.33;125681;1099;104456;-77
2021/05/06 11:23:29;;;;;;;2.27;1.50;;;;;;;20.58;44.34;100147.25;125541;1099;104175;-79
2021/05/06 11:26:12;;;;;;;2.43;1.60;;;;;;;20.58;43.14;100141.92;125568;1099;104174;-79
2021/05/06 11:28:56;;;;;;;4.77;1.60;;;;;;;20.55;43.50;100137.50;125578;1098;104861;-77
2021/05/06 11:31:38;;;;;;;;;;;;;;;20.63;42.19;100135.66;125566;1099;104184;-77
2021/05/06 11:34:36;;;;;;;4.70;1.90;;;;;;;20.60;43.51;100135.69;125572;1099;104660;-78
2021/05/06 11:37:21;;;;;;;4.00;2.03;;;;;;;20.52;43.07;100144.66;125506;1099;108336;-77
2021/05/06 11:40:26;;;;;;;4.60;1.73;;;;;;;20.42;43.21;100131.43;125560;1099;104182;-78
2021/05/06 11:43:22;;;;;;;4.73;1.70;;;;;;;20.40;42.71;100135.91;125739;1099;102897;-78
2021/05/06 11:46:04;;;;;;;6.20;1.90;;;;;;;20.40;43.07;100129.70;125607;1099;104162;-76
2021/05/06 11:48:36;;;;;;;3.17;1.50;;;;;;;20.46;42.88;100143.83;125655;1099;104077;-78
2021/05/06 11:51:35;;;;;;;3.85;1.90;;;;;;;20.50;42.79;100128.69;125681;1099;104164;-78
2021/05/06 11:54:20;;;;;;;2.77;1.40;;;;;;;20.45;41.88;100133.19;125484;1099;104358;-79
2021/05/06 11:56:53;;;;;;;1.57;1.43;;;;;;;20.43;41.76;100138.53;125499;1099;104302;-77
2021/05/06 11:59:28;;;;;;;;;;;;;;;20.41;42.60;100128.78;125906;1099;102372;-77
2021/05/06 12:02:08;;;;;;;3.80;1.90;;;;;;;20.35;42.37;100120.85;125575;1099;104149;-76
2021/05/06 12:04:41;;;;;;;2.23;1.70;;;;;;;20.37;42.82;100140.39;125485;1099;104171;-77
2021/05/06 12:07:17;;;;;;;3.30;2.00;;;;;;;20.15;41.89;100142.36;125856;1099;104238;-77
2021/05/06 12:09:50;;;;;;;2.10;1.70;;;;;;;19.99;42.34;100137.20;125601;1099;104317;-77
2021/05/06 12:12:26;;;;;;;1.73;1.60;;;;;;;19.85;42.13;100139.97;125503;1099;104183;-78
2021/05/06 12:15:18;;;;;;;3.23;1.77;;;;;;;19.74;41.98;100147.10;125599;1099;104182;-76
2021/05/06 12:17:47;;;;;;;2.97;2.00;;;;;;;19.58;42.34;100133.03;125526;1099;104204;-78
2021/05/06 12:20:16;;;;;;;2.73;1.70;;;;;;;19.51;42.29;100136.62;125604;1099;104236;-77
2021/05/06 12:22:44;;;;;;;3.63;2.07;;;;;;;19.47;41.79;100134.89;125562;1099;104153;-78
2021/05/06 12:25:14;;;;;;;3.37;1.93;;;;;;;19.40;41.50;100148.23;125534;1099;104156;-77
2021/05/06 12:27:42;;;;;;;4.73;2.10;;;;;;;19.28;41.84;100148.30;125535;1099;104216;-77
2021/05/06 12:30:13;;;;;;;3.87;1.90;;;;;;;19.16;41.56;100149.23;125541;1099;104322;-77
2021/05/06 12:32:47;;;;;;;6.10;2.03;;;;;;;19.03;41.78;100150.21;125591;1099;104284;-76
2021/05/06 12:35:27;;;;;;;5.53;2.10;;;;;;;18.93;41.62;100145.81;125509;1099;104225;-76
2021/05/06 12:37:56;;;;;;;2.17;1.97;;;;;;;18.89;41.65;100149.39;125506;1099;104165;-77
2021/05/06 12:40:28;;;;;;;4.10;1.87;;;;;;;18.96;41.49;100143.14;125587;1099;104154;-77
2021/05/06 12:42:58;;;;;;;4.20;2.00;;;;;;;18.92;41.87;100139.63;125570;1099;104163;-76
2021/05/06 12:45:39;;;;;;;3.05;1.70;;;;;;;19.06;41.37;100147.54;125479;1099;104204;-76
2021/05/06 12:48:08;;;;;;;4.13;1.57;;;;;;;19.22;41.22;100140.36;125531;1099;104191;-76
2021/05/06 12:50:36;;;;;;;4.97;1.90;;;;;;;19.36;41.48;100135.83;125578;1099;102759;-76
2021/05/06 12:53:18;;;;;;;2.30;1.80;;;;;;;19.50;41.64;100134.88;125581;1099;103477;-76
2021/05/06 12:55:46;;;;;;;4.43;2.00;;;;;;;19.58;41.71;100136.56;125559;1099;104692;-76
2021/05/06 12:58:17;;;;;;;3.77;1.90;;;;;;;19.67;41.06;100148.94;125581;1099;105529;-76
2021/05/06 13:01:11;;;;;;;7.47;2.23;;;;;;;19.61;41.05;100142.78;124904;1099;104463;-76
2021/05/06 13:03:42;;;;;;;4.90;1.98;;;;;;;19.67;41.16;100140.08;124962;1102;102838;-75
2021/05/06 13:06:15;;;;;;;4.50;2.10;;;;;;;19.55;41.37;100130.39;124933;1103;104242;-76
2021/05/06 13:08:45;;;;;;;2.60;1.63;;;;;;;19.52;39.75;100131.28;124899;1102;104214;-78
2021/05/06 13:11:15;;;;;;;5.20;2.10;;;;;;;19.53;41.00;100124.20;124896;1103;104236;-77
2021/05/06 13:13:46;;;;;;;3.87;2.00;;;;;;;19.47;40.36;100118.93;124873;1102;104681;-75
2021/05/06 13:16:16;;;;;;;4.07;1.50;;;;;;;19.44;40.73;100122.48;124899;1102;104181;-75
2021/05/06 13:19:03;;;;;;;4.40;1.80;;;;;;;19.50;40.79;100129.55;124891;1102;104546;-76
2021/05/06 13:21:32;;;;;;;6.80;1.70;;;;;;;19.66;40.94;100131.19;124591;1102;104332;-76
2021/05/06 13:24:07;;;;;;;6.93;1.83;;;;;;;19.92;40.33;100119.50;124602;1102;104181;-78
2021/05/06 13:26:38;;;;;;;4.10;2.03;;;;;;;20.10;40.08;100135.31;124819;1102;104230;-76
2021/05/06 13:29:08;;;;;;;4.30;2.07;;;;;;;20.19;40.40;100131.66;124634;1102;105397;-76
2021/05/06 13:31:37;;;;;;;2.30;1.70;;;;;;;20.30;40.54;100126.23;124624;1102;104184;-75
2021/05/06 13:34:18;;;;;;;3.07;1.67;;;;;;;20.39;40.27;100122.59;124894;1102;104264;-77
2021/05/06 13:36:58;;;;;;;11.73;2.83;;;;;;;20.55;39.91;100120.64;125558;1099;104344;-77
2021/05/06 13:39:26;;;;;;;5.67;2.20;;;;;;;20.61;39.89;100118.77;124927;1099;104334;-77
2021/05/06 13:41:55;;;;;;;5.07;1.90;;;;;;;20.66;39.47;100129.42;124905;1099;104159;-77
2021/05/06 13:44:26;;;;;;;4.20;1.80;;;;;;;20.72;39.43;100131.14;124949;1099;104179;-78
2021/05/06 13:47:09;;;;;;;4.07;2.00;;;;;;;20.68;38.66;100127.64;125620;1099;104163;-76
2021/05/06 13:49:40;;;;;;;4.93;1.70;;;;;;;20.68;39.03;100138.30;125546;1099;104224;-76
2021/05/06 13:52:11;;;;;;;4.60;1.90;;;;;;;20.70;39.13;100136.49;125618;1099;104300;-76
2021/05/06 13:54:40;;;;;;;3.67;1.93;;;;;;;20.75;38.54;100134.64;125646;1099;104236;-77
2021/05/06 13:57:12;;;;;;;6.07;1.80;;;;;;;20.75;38.85;100139.97;125558;1099;104294;-76
2021/05/06 13:59:43;;;;;;;3.03;1.83;;;;;;;20.61;38.37;100147.22;125464;1099;104172;-76